sensor_id;sensor_type;location;lat;lon;timestamp;P1;durP1;ratioP1;P2;durP2;ratioP2
50291;SDS011;36190;54.980;73.388;2023-03-05T00:01:03;9.32;;;4.18;;
50291;SDS011;36190;54.980;73.388;2023-03-05T00:03:31;11.38;;;4.80;;
50291;SDS011;36190;54.980;73.388;2023-03-05T00:05:59;8.73;;;4.18;;
50291;SDS011;36190;54.980;73.388;2023-03-05T00:08:26;8.40;;;4.22;;
50291;SDS011;36190;54.980;73.388;2023-03-05T00:10:56;7.85;;;3.85;;
50291;SDS011;36190;54.980;73.388;2023-03-05T00:13:24;8.45;;;4.35;;
50291;SDS011;36190;54.980;73.388;2023-03-05T00:15:52;9.73;;;4.40;;
50291;SDS011;36190;54.980;73.388;2023-03-05T00:18:20;11.40;;;4.72;;
50291;SDS011;36190;54.980;73.388;2023-03-05T00:20:48;9.00;;;4.00;;
50291;SDS011;36190;54.980;73.388;2023-03-05T00:23:15;9.75;;;4.82;;
50291;SDS011;36190;54.980;73.388;2023-03-05T00:25:43;10.10;;;4.35;;
50291;SDS011;36190;54.980;73.388;2023-03-05T00:28:12;11.63;;;4.90;;
50291;SDS011;36190;54.980;73.388;2023-03-05T00:30:39;12.07;;;5.35;;
50291;SDS011;36190;54.980;73.388;2023-03-05T00:33:07;9.85;;;4.40;;
50291;SDS011;36190;54.980;73.388;2023-03-05T00:35:38;10.63;;;4.80;;
50291;SDS011;36190;54.980;73.388;2023-03-05T00:38:05;10.57;;;4.78;;
50291;SDS011;36190;54.980;73.388;2023-03-05T00:40:34;10.77;;;4.35;;
50291;SDS011;36190;54.980;73.388;2023-03-05T00:43:02;9.82;;;4.35;;
50291;SDS011;36190;54.980;73.388;2023-03-05T00:45:32;10.52;;;4.93;;
50291;SDS011;36190;54.980;73.388;2023-03-05T00:48:00;9.68;;;4.97;;
50291;SDS011;36190;54.980;73.388;2023-03-05T00:50:28;11.38;;;4.68;;
50291;SDS011;36190;54.980;73.388;2023-03-05T00:52:55;11.00;;;4.85;;
50291;SDS011;36190;54.980;73.388;2023-03-05T00:55:23;11.43;;;5.32;;
50291;SDS011;36190;54.980;73.388;2023-03-05T00:57:50;11.57;;;5.63;;
50291;SDS011;36190;54.980;73.388;2023-03-05T01:00:18;10.07;;;4.72;;
50291;SDS011;36190;54.980;73.388;2023-03-05T01:02:47;11.63;;;5.30;;
50291;SDS011;36190;54.980;73.388;2023-03-05T01:05:15;10.73;;;5.38;;
50291;SDS011;36190;54.980;73.388;2023-03-05T01:07:42;9.85;;;4.75;;
50291;SDS011;36190;54.980;73.388;2023-03-05T01:10:10;11.77;;;5.82;;
50291;SDS011;36190;54.980;73.388;2023-03-05T01:12:39;10.70;;;5.00;;
50291;SDS011;36190;54.980;73.388;2023-03-05T01:15:06;14.52;;;5.70;;
50291;SDS011;36190;54.980;73.388;2023-03-05T01:17:34;13.68;;;5.57;;
50291;SDS011;36190;54.980;73.388;2023-03-05T01:20:03;9.70;;;5.07;;
50291;SDS011;36190;54.980;73.388;2023-03-05T01:22:32;12.13;;;5.68;;
50291;SDS011;36190;54.980;73.388;2023-03-05T01:24:59;16.45;;;5.80;;
50291;SDS011;36190;54.980;73.388;2023-03-05T01:27:27;12.57;;;5.85;;
50291;SDS011;36190;54.980;73.388;2023-03-05T01:29:54;13.35;;;6.47;;
50291;SDS011;36190;54.980;73.388;2023-03-05T01:32:22;14.35;;;6.78;;
50291;SDS011;36190;54.980;73.388;2023-03-05T01:34:49;13.25;;;6.40;;
50291;SDS011;36190;54.980;73.388;2023-03-05T01:37:18;14.00;;;6.18;;
50291;SDS011;36190;54.980;73.388;2023-03-05T01:39:45;12.77;;;5.90;;
50291;SDS011;36190;54.980;73.388;2023-03-05T01:42:13;12.60;;;5.53;;
50291;SDS011;36190;54.980;73.388;2023-03-05T01:47:26;13.82;;;5.97;;
50291;SDS011;36190;54.980;73.388;2023-03-05T01:49:54;13.57;;;5.53;;
50291;SDS011;36190;54.980;73.388;2023-03-05T01:52:23;12.30;;;6.35;;
50291;SDS011;36190;54.980;73.388;2023-03-05T01:54:53;10.48;;;4.72;;
50291;SDS011;36190;54.980;73.388;2023-03-05T01:57:26;10.60;;;5.28;;
50291;SDS011;36190;54.980;73.388;2023-03-05T01:59:57;12.32;;;5.32;;
50291;SDS011;36190;54.980;73.388;2023-03-05T02:02:27;12.13;;;5.40;;
50291;SDS011;36190;54.980;73.388;2023-03-05T02:04:56;10.50;;;5.20;;
50291;SDS011;36190;54.980;73.388;2023-03-05T02:07:30;14.57;;;7.13;;
50291;SDS011;36190;54.980;73.388;2023-03-05T02:09:58;16.38;;;7.38;;
50291;SDS011;36190;54.980;73.388;2023-03-05T02:12:25;14.23;;;6.32;;
50291;SDS011;36190;54.980;73.388;2023-03-05T02:14:53;10.68;;;5.15;;
50291;SDS011;36190;54.980;73.388;2023-03-05T02:17:25;11.95;;;5.45;;
50291;SDS011;36190;54.980;73.388;2023-03-05T02:19:54;12.93;;;5.35;;
50291;SDS011;36190;54.980;73.388;2023-03-05T02:22:29;12.60;;;6.00;;
50291;SDS011;36190;54.980;73.388;2023-03-05T02:24:57;19.75;;;9.05;;
50291;SDS011;36190;54.980;73.388;2023-03-05T02:27:25;24.58;;;10.95;;
50291;SDS011;36190;54.980;73.388;2023-03-05T02:29:59;16.65;;;7.28;;
50291;SDS011;36190;54.980;73.388;2023-03-05T02:32:27;16.88;;;8.43;;
50291;SDS011;36190;54.980;73.388;2023-03-05T02:34:55;18.73;;;8.30;;
50291;SDS011;36190;54.980;73.388;2023-03-05T02:37:22;17.55;;;7.38;;
50291;SDS011;36190;54.980;73.388;2023-03-05T02:39:51;14.23;;;6.32;;
50291;SDS011;36190;54.980;73.388;2023-03-05T02:42:19;15.35;;;6.25;;
50291;SDS011;36190;54.980;73.388;2023-03-05T02:44:46;16.33;;;7.22;;
50291;SDS011;36190;54.980;73.388;2023-03-05T02:47:14;14.35;;;6.47;;
50291;SDS011;36190;54.980;73.388;2023-03-05T02:49:41;16.38;;;6.47;;
50291;SDS011;36190;54.980;73.388;2023-03-05T02:52:09;15.38;;;6.32;;
50291;SDS011;36190;54.980;73.388;2023-03-05T02:54:36;13.05;;;4.68;;
50291;SDS011;36190;54.980;73.388;2023-03-05T02:57:05;12.20;;;5.10;;
50291;SDS011;36190;54.980;73.388;2023-03-05T02:59:32;10.90;;;5.35;;
50291;SDS011;36190;54.980;73.388;2023-03-05T03:02:00;14.68;;;4.90;;
50291;SDS011;36190;54.980;73.388;2023-03-05T03:04:27;11.25;;;4.95;;
50291;SDS011;36190;54.980;73.388;2023-03-05T03:06:55;13.73;;;4.60;;
50291;SDS011;36190;54.980;73.388;2023-03-05T03:09:22;10.63;;;4.68;;
50291;SDS011;36190;54.980;73.388;2023-03-05T03:11:50;11.35;;;4.60;;
50291;SDS011;36190;54.980;73.388;2023-03-05T03:14:19;9.75;;;4.20;;
50291;SDS011;36190;54.980;73.388;2023-03-05T03:16:47;9.50;;;4.18;;
50291;SDS011;36190;54.980;73.388;2023-03-05T03:19:14;7.32;;;3.78;;
50291;SDS011;36190;54.980;73.388;2023-03-05T03:21:42;10.75;;;4.88;;
50291;SDS011;36190;54.980;73.388;2023-03-05T03:24:09;8.88;;;3.60;;
50291;SDS011;36190;54.980;73.388;2023-03-05T03:26:37;9.30;;;3.75;;
50291;SDS011;36190;54.980;73.388;2023-03-05T03:29:04;9.43;;;3.88;;
50291;SDS011;36190;54.980;73.388;2023-03-05T03:31:33;10.38;;;3.55;;
50291;SDS011;36190;54.980;73.388;2023-03-05T03:34:00;11.50;;;3.88;;
50291;SDS011;36190;54.980;73.388;2023-03-05T03:36:28;11.52;;;4.18;;
50291;SDS011;36190;54.980;73.388;2023-03-05T03:38:56;10.63;;;4.65;;
50291;SDS011;36190;54.980;73.388;2023-03-05T03:41:23;10.68;;;4.68;;
50291;SDS011;36190;54.980;73.388;2023-03-05T03:43:51;10.95;;;4.40;;
50291;SDS011;36190;54.980;73.388;2023-03-05T03:46:18;9.68;;;4.50;;
50291;SDS011;36190;54.980;73.388;2023-03-05T03:48:50;11.73;;;5.00;;
50291;SDS011;36190;54.980;73.388;2023-03-05T03:51:17;13.38;;;6.00;;
50291;SDS011;36190;54.980;73.388;2023-03-05T03:53:44;13.05;;;5.25;;
50291;SDS011;36190;54.980;73.388;2023-03-05T03:56:12;12.68;;;5.00;;
50291;SDS011;36190;54.980;73.388;2023-03-05T03:58:39;13.73;;;5.20;;
50291;SDS011;36190;54.980;73.388;2023-03-05T04:01:07;11.88;;;5.05;;
50291;SDS011;36190;54.980;73.388;2023-03-05T04:03:35;10.73;;;4.72;;
50291;SDS011;36190;54.980;73.388;2023-03-05T04:06:04;14.38;;;5.15;;
50291;SDS011;36190;54.980;73.388;2023-03-05T04:08:32;13.27;;;4.82;;
50291;SDS011;36190;54.980;73.388;2023-03-05T04:11:00;10.45;;;4.00;;
50291;SDS011;36190;54.980;73.388;2023-03-05T04:13:28;11.27;;;4.80;;
50291;SDS011;36190;54.980;73.388;2023-03-05T04:15:55;12.27;;;4.78;;
50291;SDS011;36190;54.980;73.388;2023-03-05T04:18:23;10.25;;;4.70;;
50291;SDS011;36190;54.980;73.388;2023-03-05T04:20:51;12.48;;;5.10;;
50291;SDS011;36190;54.980;73.388;2023-03-05T04:23:20;8.80;;;3.88;;
50291;SDS011;36190;54.980;73.388;2023-03-05T04:25:47;12.32;;;4.65;;
50291;SDS011;36190;54.980;73.388;2023-03-05T04:28:15;12.77;;;5.15;;
50291;SDS011;36190;54.980;73.388;2023-03-05T04:30:43;10.77;;;4.75;;
50291;SDS011;36190;54.980;73.388;2023-03-05T04:33:11;15.48;;;4.93;;
50291;SDS011;36190;54.980;73.388;2023-03-05T04:35:38;11.75;;;4.38;;
50291;SDS011;36190;54.980;73.388;2023-03-05T04:38:06;12.07;;;4.93;;
50291;SDS011;36190;54.980;73.388;2023-03-05T04:40:35;11.32;;;4.40;;
50291;SDS011;36190;54.980;73.388;2023-03-05T04:43:03;11.82;;;4.20;;
50291;SDS011;36190;54.980;73.388;2023-03-05T04:45:31;15.50;;;6.95;;
50291;SDS011;36190;54.980;73.388;2023-03-05T04:47:59;10.60;;;4.88;;
50291;SDS011;36190;54.980;73.388;2023-03-05T04:50:27;13.07;;;5.28;;
50291;SDS011;36190;54.980;73.388;2023-03-05T04:52:54;12.18;;;4.63;;
50291;SDS011;36190;54.980;73.388;2023-03-05T04:55:22;9.10;;;4.32;;
50291;SDS011;36190;54.980;73.388;2023-03-05T04:57:51;11.85;;;4.45;;
50291;SDS011;36190;54.980;73.388;2023-03-05T05:00:19;16.42;;;5.28;;
50291;SDS011;36190;54.980;73.388;2023-03-05T05:02:47;10.10;;;4.47;;
50291;SDS011;36190;54.980;73.388;2023-03-05T05:05:17;8.75;;;4.18;;
50291;SDS011;36190;54.980;73.388;2023-03-05T05:07:46;12.13;;;5.47;;
50291;SDS011;36190;54.980;73.388;2023-03-05T05:10:13;13.57;;;4.22;;
50291;SDS011;36190;54.980;73.388;2023-03-05T05:12:42;12.10;;;4.50;;
50291;SDS011;36190;54.980;73.388;2023-03-05T05:15:11;9.48;;;3.92;;
50291;SDS011;36190;54.980;73.388;2023-03-05T05:17:39;10.10;;;4.43;;
50291;SDS011;36190;54.980;73.388;2023-03-05T05:20:07;12.90;;;4.93;;
50291;SDS011;36190;54.980;73.388;2023-03-05T05:22:36;11.85;;;4.55;;
50291;SDS011;36190;54.980;73.388;2023-03-05T05:25:04;12.88;;;5.20;;
50291;SDS011;36190;54.980;73.388;2023-03-05T05:27:32;13.07;;;4.80;;
50291;SDS011;36190;54.980;73.388;2023-03-05T05:29:59;13.50;;;6.35;;
50291;SDS011;36190;54.980;73.388;2023-03-05T05:32:29;10.13;;;4.35;;
50291;SDS011;36190;54.980;73.388;2023-03-05T05:34:57;17.25;;;5.05;;
50291;SDS011;36190;54.980;73.388;2023-03-05T05:37:25;14.30;;;5.88;;
50291;SDS011;36190;54.980;73.388;2023-03-05T05:39:53;12.73;;;5.05;;
50291;SDS011;36190;54.980;73.388;2023-03-05T05:42:21;14.05;;;6.05;;
50291;SDS011;36190;54.980;73.388;2023-03-05T05:44:49;10.63;;;4.65;;
50291;SDS011;36190;54.980;73.388;2023-03-05T05:47:16;12.05;;;4.40;;
50291;SDS011;36190;54.980;73.388;2023-03-05T05:49:46;11.70;;;4.43;;
50291;SDS011;36190;54.980;73.388;2023-03-05T05:52:13;10.80;;;4.85;;
50291;SDS011;36190;54.980;73.388;2023-03-05T05:54:41;10.43;;;4.10;;
50291;SDS011;36190;54.980;73.388;2023-03-05T05:57:08;11.63;;;4.30;;
50291;SDS011;36190;54.980;73.388;2023-03-05T05:59:36;10.95;;;4.55;;
50291;SDS011;36190;54.980;73.388;2023-03-05T06:02:03;10.50;;;3.92;;
50291;SDS011;36190;54.980;73.388;2023-03-05T06:04:32;8.63;;;3.30;;
50291;SDS011;36190;54.980;73.388;2023-03-05T06:07:01;10.38;;;4.13;;
50291;SDS011;36190;54.980;73.388;2023-03-05T06:09:28;11.30;;;4.15;;
50291;SDS011;36190;54.980;73.388;2023-03-05T06:11:56;18.20;;;7.40;;
50291;SDS011;36190;54.980;73.388;2023-03-05T06:14:23;18.13;;;5.45;;
50291;SDS011;36190;54.980;73.388;2023-03-05T06:16:51;14.70;;;5.45;;
50291;SDS011;36190;54.980;73.388;2023-03-05T06:19:18;14.65;;;6.45;;
50291;SDS011;36190;54.980;73.388;2023-03-05T06:21:46;9.95;;;4.07;;
50291;SDS011;36190;54.980;73.388;2023-03-05T06:24:15;9.40;;;3.95;;
50291;SDS011;36190;54.980;73.388;2023-03-05T06:26:43;11.57;;;3.95;;
50291;SDS011;36190;54.980;73.388;2023-03-05T06:29:12;12.80;;;4.80;;
50291;SDS011;36190;54.980;73.388;2023-03-05T06:31:40;13.13;;;4.15;;
50291;SDS011;36190;54.980;73.388;2023-03-05T06:34:08;9.50;;;4.43;;
50291;SDS011;36190;54.980;73.388;2023-03-05T06:36:37;12.15;;;4.53;;
50291;SDS011;36190;54.980;73.388;2023-03-05T06:39:05;12.15;;;5.45;;
50291;SDS011;36190;54.980;73.388;2023-03-05T06:41:35;10.50;;;5.05;;
50291;SDS011;36190;54.980;73.388;2023-03-05T06:44:02;11.30;;;4.50;;
50291;SDS011;36190;54.980;73.388;2023-03-05T06:46:31;9.73;;;3.95;;
50291;SDS011;36190;54.980;73.388;2023-03-05T06:49:02;13.50;;;4.70;;
50291;SDS011;36190;54.980;73.388;2023-03-05T06:51:30;8.75;;;3.72;;
50291;SDS011;36190;54.980;73.388;2023-03-05T06:53:59;10.05;;;3.58;;
50291;SDS011;36190;54.980;73.388;2023-03-05T06:56:29;9.88;;;3.78;;
50291;SDS011;36190;54.980;73.388;2023-03-05T06:58:58;8.70;;;3.28;;
50291;SDS011;36190;54.980;73.388;2023-03-05T07:01:26;9.07;;;3.40;;
50291;SDS011;36190;54.980;73.388;2023-03-05T07:03:54;11.85;;;3.88;;
50291;SDS011;36190;54.980;73.388;2023-03-05T07:06:23;10.40;;;3.90;;
50291;SDS011;36190;54.980;73.388;2023-03-05T07:08:53;12.02;;;4.15;;
50291;SDS011;36190;54.980;73.388;2023-03-05T07:11:21;9.18;;;3.90;;
50291;SDS011;36190;54.980;73.388;2023-03-05T07:13:50;14.20;;;4.20;;
50291;SDS011;36190;54.980;73.388;2023-03-05T07:16:19;12.65;;;5.10;;
50291;SDS011;36190;54.980;73.388;2023-03-05T07:18:48;9.82;;;4.20;;
50291;SDS011;36190;54.980;73.388;2023-03-05T07:21:16;16.40;;;5.28;;
50291;SDS011;36190;54.980;73.388;2023-03-05T07:23:45;13.00;;;6.38;;
50291;SDS011;36190;54.980;73.388;2023-03-05T07:26:14;12.52;;;5.35;;
50291;SDS011;36190;54.980;73.388;2023-03-05T07:28:42;10.93;;;4.85;;
50291;SDS011;36190;54.980;73.388;2023-03-05T07:31:11;11.48;;;4.65;;
50291;SDS011;36190;54.980;73.388;2023-03-05T07:33:41;11.05;;;4.00;;
50291;SDS011;36190;54.980;73.388;2023-03-05T07:36:09;19.63;;;4.53;;
50291;SDS011;36190;54.980;73.388;2023-03-05T07:38:37;11.38;;;4.07;;
50291;SDS011;36190;54.980;73.388;2023-03-05T07:41:05;10.05;;;4.07;;
50291;SDS011;36190;54.980;73.388;2023-03-05T07:43:34;10.27;;;4.15;;
50291;SDS011;36190;54.980;73.388;2023-03-05T07:46:02;10.68;;;3.63;;
50291;SDS011;36190;54.980;73.388;2023-03-05T07:48:31;9.38;;;3.83;;
50291;SDS011;36190;54.980;73.388;2023-03-05T07:51:00;8.30;;;3.83;;
50291;SDS011;36190;54.980;73.388;2023-03-05T07:53:28;11.20;;;3.70;;
50291;SDS011;36190;54.980;73.388;2023-03-05T07:55:56;10.25;;;4.00;;
50291;SDS011;36190;54.980;73.388;2023-03-05T07:58:23;9.00;;;3.67;;
50291;SDS011;36190;54.980;73.388;2023-03-05T08:00:51;7.18;;;3.30;;
50291;SDS011;36190;54.980;73.388;2023-03-05T08:03:19;9.82;;;3.67;;
50291;SDS011;36190;54.980;73.388;2023-03-05T08:05:46;8.82;;;3.63;;
50291;SDS011;36190;54.980;73.388;2023-03-05T08:08:15;13.23;;;4.30;;
50291;SDS011;36190;54.980;73.388;2023-03-05T08:10:43;14.55;;;4.05;;
50291;SDS011;36190;54.980;73.388;2023-03-05T08:13:10;9.88;;;3.70;;
50291;SDS011;36190;54.980;73.388;2023-03-05T08:15:38;10.23;;;3.67;;
50291;SDS011;36190;54.980;73.388;2023-03-05T08:18:05;13.20;;;4.07;;
50291;SDS011;36190;54.980;73.388;2023-03-05T08:20:33;9.38;;;3.80;;
50291;SDS011;36190;54.980;73.388;2023-03-05T08:23:01;10.18;;;3.10;;
50291;SDS011;36190;54.980;73.388;2023-03-05T08:25:30;10.13;;;3.53;;
50291;SDS011;36190;54.980;73.388;2023-03-05T08:27:58;10.13;;;3.67;;
50291;SDS011;36190;54.980;73.388;2023-03-05T08:30:25;8.20;;;3.50;;
50291;SDS011;36190;54.980;73.388;2023-03-05T08:32:53;8.77;;;3.38;;
50291;SDS011;36190;54.980;73.388;2023-03-05T08:35:21;7.53;;;3.08;;
50291;SDS011;36190;54.980;73.388;2023-03-05T08:37:49;6.82;;;3.00;;
50291;SDS011;36190;54.980;73.388;2023-03-05T08:40:17;10.15;;;3.38;;
50291;SDS011;36190;54.980;73.388;2023-03-05T08:42:46;10.18;;;4.28;;
50291;SDS011;36190;54.980;73.388;2023-03-05T08:45:16;23.00;;;5.95;;
50291;SDS011;36190;54.980;73.388;2023-03-05T08:47:43;16.27;;;7.60;;
50291;SDS011;36190;54.980;73.388;2023-03-05T08:50:11;14.70;;;5.28;;
50291;SDS011;36190;54.980;73.388;2023-03-05T08:52:38;8.68;;;4.03;;
50291;SDS011;36190;54.980;73.388;2023-03-05T08:55:06;9.13;;;3.95;;
50291;SDS011;36190;54.980;73.388;2023-03-05T08:57:34;7.78;;;3.50;;
50291;SDS011;36190;54.980;73.388;2023-03-05T09:00:03;8.13;;;3.05;;
50291;SDS011;36190;54.980;73.388;2023-03-05T09:02:32;9.93;;;4.00;;
50291;SDS011;36190;54.980;73.388;2023-03-05T09:04:59;10.80;;;4.18;;
50291;SDS011;36190;54.980;73.388;2023-03-05T09:07:27;8.77;;;3.42;;
50291;SDS011;36190;54.980;73.388;2023-03-05T09:09:54;7.88;;;3.33;;
50291;SDS011;36190;54.980;73.388;2023-03-05T09:12:21;7.50;;;3.10;;
50291;SDS011;36190;54.980;73.388;2023-03-05T09:14:49;8.27;;;3.20;;
50291;SDS011;36190;54.980;73.388;2023-03-05T09:17:21;10.35;;;3.80;;
50291;SDS011;36190;54.980;73.388;2023-03-05T09:19:49;9.18;;;3.47;;
50291;SDS011;36190;54.980;73.388;2023-03-05T09:22:16;9.73;;;3.53;;
50291;SDS011;36190;54.980;73.388;2023-03-05T09:24:44;8.57;;;3.30;;
50291;SDS011;36190;54.980;73.388;2023-03-05T09:27:11;8.43;;;3.25;;
50291;SDS011;36190;54.980;73.388;2023-03-05T09:29:39;9.13;;;3.65;;
50291;SDS011;36190;54.980;73.388;2023-03-05T09:32:06;9.90;;;3.60;;
50291;SDS011;36190;54.980;73.388;2023-03-05T09:34:35;11.13;;;3.90;;
50291;SDS011;36190;54.980;73.388;2023-03-05T09:37:03;7.63;;;3.20;;
50291;SDS011;36190;54.980;73.388;2023-03-05T09:39:31;9.02;;;3.70;;
50291;SDS011;36190;54.980;73.388;2023-03-05T09:42:02;9.20;;;3.90;;
50291;SDS011;36190;54.980;73.388;2023-03-05T09:44:45;8.27;;;3.78;;
50291;SDS011;36190;54.980;73.388;2023-03-05T09:47:42;10.35;;;4.63;;
50291;SDS011;36190;54.980;73.388;2023-03-05T09:50:21;10.02;;;4.25;;
50291;SDS011;36190;54.980;73.388;2023-03-05T09:53:00;11.35;;;4.05;;
50291;SDS011;36190;54.980;73.388;2023-03-05T09:55:33;12.70;;;4.35;;
50291;SDS011;36190;54.980;73.388;2023-03-05T09:58:05;12.40;;;4.05;;
50291;SDS011;36190;54.980;73.388;2023-03-05T10:00:38;10.07;;;5.00;;
50291;SDS011;36190;54.980;73.388;2023-03-05T10:03:12;9.75;;;4.03;;
50291;SDS011;36190;54.980;73.388;2023-03-05T10:05:59;9.88;;;4.82;;
50291;SDS011;36190;54.980;73.388;2023-03-05T10:08:43;12.15;;;5.40;;
50291;SDS011;36190;54.980;73.388;2023-03-05T10:11:22;10.50;;;4.40;;
50291;SDS011;36190;54.980;73.388;2023-03-05T10:14:13;12.65;;;5.88;;
50291;SDS011;36190;54.980;73.388;2023-03-05T10:16:59;17.75;;;7.85;;
50291;SDS011;36190;54.980;73.388;2023-03-05T10:19:46;13.18;;;4.80;;
50291;SDS011;36190;54.980;73.388;2023-03-05T10:22:41;11.38;;;5.07;;
50291;SDS011;36190;54.980;73.388;2023-03-05T10:25:35;8.93;;;4.00;;
50291;SDS011;36190;54.980;73.388;2023-03-05T10:28:16;12.27;;;4.40;;
50291;SDS011;36190;54.980;73.388;2023-03-05T10:30:51;11.85;;;4.53;;
50291;SDS011;36190;54.980;73.388;2023-03-05T10:33:29;9.90;;;4.07;;
50291;SDS011;36190;54.980;73.388;2023-03-05T10:36:11;14.63;;;4.45;;
50291;SDS011;36190;54.980;73.388;2023-03-05T10:39:05;10.50;;;4.57;;
50291;SDS011;36190;54.980;73.388;2023-03-05T10:41:45;10.43;;;3.95;;
50291;SDS011;36190;54.980;73.388;2023-03-05T10:44:29;9.30;;;3.80;;
50291;SDS011;36190;54.980;73.388;2023-03-05T10:47:02;8.63;;;3.75;;
50291;SDS011;36190;54.980;73.388;2023-03-05T10:49:36;10.05;;;4.03;;
50291;SDS011;36190;54.980;73.388;2023-03-05T10:52:15;14.20;;;5.97;;
50291;SDS011;36190;54.980;73.388;2023-03-05T10:54:45;11.13;;;5.07;;
50291;SDS011;36190;54.980;73.388;2023-03-05T10:57:15;11.23;;;4.57;;
50291;SDS011;36190;54.980;73.388;2023-03-05T10:59:46;11.63;;;4.10;;
50291;SDS011;36190;54.980;73.388;2023-03-05T11:02:15;10.68;;;4.07;;
50291;SDS011;36190;54.980;73.388;2023-03-05T11:04:43;14.60;;;4.80;;
50291;SDS011;36190;54.980;73.388;2023-03-05T11:07:29;12.18;;;5.13;;
50291;SDS011;36190;54.980;73.388;2023-03-05T11:10:04;9.35;;;3.85;;
50291;SDS011;36190;54.980;73.388;2023-03-05T11:12:39;9.88;;;3.88;;
50291;SDS011;36190;54.980;73.388;2023-03-05T11:15:18;10.23;;;3.97;;
50291;SDS011;36190;54.980;73.388;2023-03-05T11:20:45;10.57;;;4.35;;
50291;SDS011;36190;54.980;73.388;2023-03-05T11:23:14;13.90;;;5.53;;
50291;SDS011;36190;54.980;73.388;2023-03-05T11:25:52;16.27;;;5.28;;
50291;SDS011;36190;54.980;73.388;2023-03-05T11:28:23;11.55;;;4.28;;
50291;SDS011;36190;54.980;73.388;2023-03-05T11:30:53;12.35;;;4.90;;
50291;SDS011;36190;54.980;73.388;2023-03-05T11:33:26;12.20;;;4.50;;
50291;SDS011;36190;54.980;73.388;2023-03-05T11:36:09;17.05;;;6.53;;
50291;SDS011;36190;54.980;73.388;2023-03-05T11:43:58;12.48;;;4.57;;
50291;SDS011;36190;54.980;73.388;2023-03-05T11:46:33;12.23;;;5.18;;
50291;SDS011;36190;54.980;73.388;2023-03-05T11:49:06;10.05;;;4.45;;
50291;SDS011;36190;54.980;73.388;2023-03-05T11:51:39;9.85;;;4.53;;
50291;SDS011;36190;54.980;73.388;2023-03-05T11:54:12;16.40;;;5.97;;
50291;SDS011;36190;54.980;73.388;2023-03-05T11:56:46;14.18;;;6.38;;
50291;SDS011;36190;54.980;73.388;2023-03-05T11:59:15;14.13;;;5.88;;
50291;SDS011;36190;54.980;73.388;2023-03-05T12:01:45;18.80;;;9.32;;
50291;SDS011;36190;54.980;73.388;2023-03-05T12:04:14;18.02;;;8.57;;
50291;SDS011;36190;54.980;73.388;2023-03-05T12:06:44;16.27;;;7.15;;
50291;SDS011;36190;54.980;73.388;2023-03-05T12:09:16;15.30;;;7.30;;
50291;SDS011;36190;54.980;73.388;2023-03-05T12:11:51;16.92;;;7.15;;
50291;SDS011;36190;54.980;73.388;2023-03-05T12:14:29;13.80;;;5.47;;
50291;SDS011;36190;54.980;73.388;2023-03-05T12:17:02;13.40;;;5.30;;
50291;SDS011;36190;54.980;73.388;2023-03-05T12:19:37;16.23;;;6.03;;
50291;SDS011;36190;54.980;73.388;2023-03-05T12:22:14;13.48;;;5.13;;
50291;SDS011;36190;54.980;73.388;2023-03-05T12:24:45;18.95;;;8.80;;
50291;SDS011;36190;54.980;73.388;2023-03-05T12:27:16;12.70;;;5.45;;
50291;SDS011;36190;54.980;73.388;2023-03-05T12:29:58;14.02;;;4.97;;
50291;SDS011;36190;54.980;73.388;2023-03-05T12:35:26;14.23;;;4.75;;
50291;SDS011;36190;54.980;73.388;2023-03-05T12:44:14;15.95;;;6.18;;
50291;SDS011;36190;54.980;73.388;2023-03-05T12:49:45;15.50;;;5.95;;
50291;SDS011;36190;54.980;73.388;2023-03-05T12:52:18;16.73;;;7.43;;
50291;SDS011;36190;54.980;73.388;2023-03-05T12:57:51;15.25;;;6.15;;
50291;SDS011;36190;54.980;73.388;2023-03-05T13:00:26;14.52;;;5.80;;
50291;SDS011;36190;54.980;73.388;2023-03-05T13:02:58;15.27;;;5.80;;
50291;SDS011;36190;54.980;73.388;2023-03-05T13:05:30;19.15;;;5.97;;
50291;SDS011;36190;54.980;73.388;2023-03-05T13:10:49;14.35;;;6.28;;
50291;SDS011;36190;54.980;73.388;2023-03-05T13:13:18;18.05;;;6.65;;
50291;SDS011;36190;54.980;73.388;2023-03-05T13:15:48;15.93;;;5.90;;
50291;SDS011;36190;54.980;73.388;2023-03-05T13:18:18;13.93;;;5.75;;
50291;SDS011;36190;54.980;73.388;2023-03-05T13:20:46;17.00;;;5.95;;
50291;SDS011;36190;54.980;73.388;2023-03-05T13:23:21;13.55;;;6.38;;
50291;SDS011;36190;54.980;73.388;2023-03-05T13:25:56;15.73;;;6.18;;
50291;SDS011;36190;54.980;73.388;2023-03-05T13:28:26;13.43;;;6.25;;
50291;SDS011;36190;54.980;73.388;2023-03-05T13:30:56;12.68;;;5.22;;
50291;SDS011;36190;54.980;73.388;2023-03-05T13:33:26;12.75;;;5.55;;
50291;SDS011;36190;54.980;73.388;2023-03-05T13:35:55;14.32;;;6.38;;
50291;SDS011;36190;54.980;73.388;2023-03-05T13:38:24;12.48;;;6.38;;
50291;SDS011;36190;54.980;73.388;2023-03-05T13:41:01;12.95;;;5.75;;
50291;SDS011;36190;54.980;73.388;2023-03-05T13:43:30;16.23;;;6.33;;
50291;SDS011;36190;54.980;73.388;2023-03-05T13:45:59;15.77;;;6.40;;
50291;SDS011;36190;54.980;73.388;2023-03-05T13:48:27;13.75;;;6.10;;
50291;SDS011;36190;54.980;73.388;2023-03-05T13:50:56;14.57;;;6.75;;
50291;SDS011;36190;54.980;73.388;2023-03-05T13:53:24;14.73;;;6.75;;
50291;SDS011;36190;54.980;73.388;2023-03-05T13:55:55;14.23;;;6.32;;
50291;SDS011;36190;54.980;73.388;2023-03-05T14:01:13;16.05;;;6.35;;
50291;SDS011;36190;54.980;73.388;2023-03-05T14:03:48;22.33;;;7.40;;
50291;SDS011;36190;54.980;73.388;2023-03-05T14:06:20;14.85;;;6.07;;
50291;SDS011;36190;54.980;73.388;2023-03-05T14:08:51;19.13;;;8.18;;
50291;SDS011;36190;54.980;73.388;2023-03-05T14:11:21;16.70;;;6.78;;
50291;SDS011;36190;54.980;73.388;2023-03-05T14:13:48;18.90;;;8.70;;
50291;SDS011;36190;54.980;73.388;2023-03-05T14:16:32;16.95;;;7.80;;
50291;SDS011;36190;54.980;73.388;2023-03-05T14:19:00;22.70;;;9.85;;
50291;SDS011;36190;54.980;73.388;2023-03-05T14:24:19;18.50;;;8.30;;
50291;SDS011;36190;54.980;73.388;2023-03-05T14:26:51;16.98;;;8.10;;
50291;SDS011;36190;54.980;73.388;2023-03-05T14:29:20;17.90;;;7.75;;
50291;SDS011;36190;54.980;73.388;2023-03-05T14:31:52;16.83;;;8.32;;
50291;SDS011;36190;54.980;73.388;2023-03-05T14:34:23;14.25;;;6.90;;
50291;SDS011;36190;54.980;73.388;2023-03-05T14:36:54;15.80;;;7.38;;
50291;SDS011;36190;54.980;73.388;2023-03-05T14:39:28;16.08;;;7.60;;
50291;SDS011;36190;54.980;73.388;2023-03-05T14:45:08;14.18;;;6.28;;
50291;SDS011;36190;54.980;73.388;2023-03-05T14:47:39;18.92;;;8.02;;
50291;SDS011;36190;54.980;73.388;2023-03-05T14:50:08;16.83;;;8.10;;
50291;SDS011;36190;54.980;73.388;2023-03-05T14:52:40;19.20;;;6.65;;
50291;SDS011;36190;54.980;73.388;2023-03-05T14:55:12;18.10;;;7.82;;
50291;SDS011;36190;54.980;73.388;2023-03-05T14:57:41;14.93;;;6.18;;
50291;SDS011;36190;54.980;73.388;2023-03-05T15:00:14;12.23;;;4.60;;
50291;SDS011;36190;54.980;73.388;2023-03-05T15:02:44;17.38;;;5.70;;
50291;SDS011;36190;54.980;73.388;2023-03-05T15:05:11;10.25;;;4.32;;
50291;SDS011;36190;54.980;73.388;2023-03-05T15:07:39;10.68;;;4.80;;
50291;SDS011;36190;54.980;73.388;2023-03-05T15:10:07;13.13;;;4.95;;
50291;SDS011;36190;54.980;73.388;2023-03-05T15:12:36;12.48;;;4.90;;
50291;SDS011;36190;54.980;73.388;2023-03-05T15:15:03;11.43;;;4.40;;
50291;SDS011;36190;54.980;73.388;2023-03-05T15:17:33;10.05;;;4.18;;